createdAt,value
2024-05-09T00:00:39.558Z,100609.22
2024-05-09T00:03:43.172Z,100608.16
2024-05-09T00:06:45.744Z,100598.94
2024-05-09T00:09:49.191Z,100606.78
2024-05-09T00:12:51.533Z,100605.72
2024-05-09T00:15:53.884Z,100599.50
2024-05-09T00:18:56.340Z,100615.75
2024-05-09T00:21:58.777Z,100613.56
2024-05-09T00:25:01.157Z,100612.19
2024-05-09T00:28:03.845Z,100604.34
2024-05-09T00:31:06.191Z,100590.28
2024-05-09T00:34:08.763Z,100604.91
2024-05-09T00:37:11.282Z,100604.34
2024-05-09T00:40:18.771Z,100602.75
2024-05-09T00:43:29.381Z,100591.59
2024-05-09T00:46:31.766Z,100610.31
2024-05-09T00:49:34.777Z,100591.88
2024-05-09T00:52:37.678Z,100576.72
2024-05-09T00:55:40.329Z,100611.16
2024-05-09T00:58:43.208Z,100596.22
2024-05-09T01:01:46.414Z,100594.03
2024-05-09T01:04:50.270Z,100604.91
2024-05-09T01:07:52.737Z,100597.84
2024-05-09T01:10:55.340Z,100609.50
2024-05-09T01:13:57.782Z,100614.09
2024-05-09T01:17:00.184Z,100592.97
2024-05-09T01:20:04.203Z,100608.16
2024-05-09T01:23:10.114Z,100615.75
2024-05-09T01:26:12.746Z,100604.09
2024-05-09T01:29:15.421Z,100598.38
2024-05-09T01:32:17.881Z,100605.69
2024-05-09T01:35:23.873Z,100619.53
2024-05-09T01:38:26.487Z,100609.75
2024-05-09T01:41:28.920Z,100617.63
2024-05-09T01:44:31.325Z,100606.50
2024-05-09T01:47:33.837Z,100606.25
2024-05-09T01:50:40.249Z,100585.66
2024-05-09T01:53:44.815Z,100613.28
2024-05-09T01:56:47.199Z,100600.28
2024-05-09T01:59:49.574Z,100609.78
2024-05-09T02:02:52.146Z,100594.63
2024-05-09T02:05:54.644Z,100608.16
2024-05-09T02:08:57.032Z,100609.50
2024-05-09T02:11:59.493Z,100603.56
2024-05-09T02:15:01.964Z,100584.31
2024-05-09T02:18:04.897Z,100598.41
2024-05-09T02:21:09.133Z,100595.72
2024-05-09T02:24:11.563Z,100593.00
2024-05-09T02:27:13.948Z,100590.81
2024-05-09T02:30:22.886Z,100610.34
2024-05-09T02:33:33.263Z,100599.50
2024-05-09T02:36:35.863Z,100606.81
2024-05-09T02:39:38.293Z,100597.34
2024-05-09T02:42:40.685Z,100598.44
2024-05-09T02:45:43.085Z,100602.22
2024-05-09T02:48:45.646Z,100587.59
2024-05-09T02:51:48.205Z,100598.69
2024-05-09T02:54:50.585Z,100594.91
2024-05-09T02:57:52.973Z,100604.38
2024-05-09T03:00:55.423Z,100601.94
2024-05-09T03:03:58.004Z,100599.50
2024-05-09T03:07:00.585Z,100607.09
2024-05-09T03:10:03.484Z,100599.50
2024-05-09T03:13:15.493Z,100582.97
2024-05-09T03:16:18.679Z,100594.88
2024-05-09T03:19:21.160Z,100598.97
2024-05-09T03:22:23.746Z,100597.06
2024-05-09T03:25:26.190Z,100579.47
2024-05-09T03:28:28.570Z,100589.78
2024-05-09T03:31:30.954Z,100595.19
2024-05-09T03:34:33.402Z,100600.03
2024-05-09T03:37:35.782Z,100601.66
2024-05-09T03:40:47.058Z,100601.63
2024-05-09T03:43:49.586Z,100592.44
2024-05-09T03:46:52.106Z,100608.09
2024-05-09T03:49:54.457Z,100597.53
2024-05-09T03:52:56.951Z,100612.44
2024-05-09T03:55:59.567Z,100601.03
2024-05-09T03:59:02.165Z,100598.63
2024-05-09T04:02:06.513Z,100621.97
2024-05-09T04:05:09.350Z,100622.50
2024-05-09T04:08:14.875Z,100621.16
2024-05-09T04:11:17.703Z,100615.47
2024-05-09T04:14:20.437Z,100608.97
2024-05-09T04:17:22.910Z,100636.06
2024-05-09T04:20:35.876Z,100627.41
2024-05-09T04:23:41.810Z,100627.66
2024-05-09T04:26:44.410Z,100632.25
2024-05-09T04:29:46.750Z,100642.00
2024-05-09T04:32:50.500Z,100613.06
2024-05-09T04:35:53.043Z,100623.88
2024-05-09T04:38:58.487Z,100623.88
2024-05-09T04:42:00.861Z,100629.28
2024-05-09T04:45:03.369Z,100636.31
2024-05-09T04:48:06.490Z,100628.72
2024-05-09T04:51:09.021Z,100637.16
2024-05-09T04:54:22.177Z,100633.34
2024-05-09T04:57:32.386Z,100663.13
2024-05-09T05:00:37.342Z,100645.81
2024-05-09T05:03:41.636Z,100666.66
2024-05-09T05:06:44.102Z,100659.63
2024-05-09T05:09:46.567Z,100645.78
2024-05-09T05:13:07.809Z,100672.31
2024-05-09T05:16:10.183Z,100667.72
2024-05-09T05:19:15.115Z,100663.66
2024-05-09T05:25:48.505Z,100652.03
2024-05-09T05:28:52.263Z,100675.06
2024-05-09T05:31:55.627Z,100653.41
2024-05-09T05:34:58.486Z,100673.41
2024-05-09T05:38:01.216Z,100671.00
2024-05-09T05:41:03.946Z,100687.53
2024-05-09T05:44:06.440Z,100681.03
2024-05-09T05:47:09.017Z,100681.28
2024-05-09T05:50:20.784Z,100662.59
2024-05-09T05:53:30.030Z,100671.78
2024-05-09T05:56:32.557Z,100679.63
2024-05-09T05:59:35.084Z,100685.84
2024-05-09T06:02:37.654Z,100679.09
2024-05-09T06:05:40.869Z,100692.09
2024-05-09T06:08:43.764Z,100701.56
2024-05-09T06:11:46.687Z,100701.81
2024-05-09T06:14:49.413Z,100681.28
2024-05-09T06:17:51.903Z,100689.66
2024-05-09T06:20:54.534Z,100693.72
2024-05-09T06:23:57.251Z,100692.91
2024-05-09T06:27:01.268Z,100698.59
2024-05-09T06:30:03.953Z,100716.47
2024-05-09T06:33:09.390Z,100711.88
2024-05-09T06:36:13.292Z,100700.22
2024-05-09T06:39:15.705Z,100692.91
2024-05-09T06:42:18.061Z,100692.63
2024-05-09T06:45:20.433Z,100711.00
2024-05-09T06:48:23.360Z,100703.69
2024-05-09T06:51:25.917Z,100705.03
2024-05-09T06:54:28.402Z,100711.75
2024-05-09T06:57:31.033Z,100710.16
2024-05-09T07:00:38.977Z,100717.16
2024-05-09T07:03:43.464Z,100699.22
2024-05-09T07:06:45.988Z,100692.44
2024-05-09T07:09:48.559Z,100695.38
2024-05-09T07:12:55.449Z,100698.06
2024-05-09T07:15:57.870Z,100711.56
2024-05-09T07:19:00.308Z,100712.34
2024-05-09T07:22:02.923Z,100707.19
2024-05-09T07:25:05.446Z,100710.69
2024-05-09T07:28:18.524Z,100710.88
2024-05-09T07:31:21.508Z,100706.28
2024-05-09T07:34:25.558Z,100702.19
2024-05-09T07:37:28.111Z,100705.66
2024-05-09T07:40:35.888Z,100690.41
2024-05-09T07:43:39.365Z,100688.41
2024-05-09T07:51:32.634Z,100688.25
2024-05-09T07:53:37.118Z,100708.41
2024-05-09T07:56:35.180Z,100711.31
2024-05-09T07:59:41.806Z,100689.03
2024-05-09T08:02:44.313Z,100708.72
2024-05-09T08:05:46.820Z,100696.47
2024-05-09T08:08:49.304Z,100695.88
2024-05-09T08:11:52.890Z,100696.06
2024-05-09T08:14:56.482Z,100700.97
2024-05-09T08:18:00.198Z,100696.69
2024-05-09T08:21:02.916Z,100705.28
2024-05-09T08:24:05.994Z,100707.47
2024-05-09T08:27:08.793Z,100707.38
2024-05-09T08:30:18.972Z,100698.88
2024-05-09T08:33:27.781Z,100708.06
2024-05-09T08:36:30.353Z,100709.91
2024-05-09T08:39:32.915Z,100693.66
2024-05-09T08:42:36.392Z,100709.63
2024-05-09T08:45:43.139Z,100703.31
2024-05-09T08:48:48.437Z,100702.16
2024-05-09T08:51:51.036Z,100693.78
2024-05-09T08:54:54.880Z,100692.66
2024-05-09T08:57:57.874Z,100705.56
2024-05-09T09:01:00.820Z,100697.72
2024-05-09T09:04:04.746Z,100707.94
2024-05-09T09:07:07.328Z,100714.72
2024-05-09T09:10:12.978Z,100714.72
2024-05-09T09:13:17.710Z,100704.84
2024-05-09T09:16:20.731Z,100703.00
2024-05-09T09:19:23.778Z,100705.41
2024-05-09T09:22:26.482Z,100704.78
2024-05-09T09:25:28.840Z,100700.06
2024-05-09T09:28:31.268Z,100710.09
2024-05-09T09:31:33.812Z,100692.41
2024-05-09T09:34:36.666Z,100697.63
2024-05-09T09:37:39.011Z,100665.63
2024-05-09T09:40:46.932Z,100696.91
2024-05-09T09:43:53.296Z,100693.72
2024-05-09T09:47:02.732Z,100685.84
2024-05-09T09:50:12.038Z,100693.19
2024-05-09T09:53:17.219Z,100685.31
2024-05-09T09:56:20.340Z,100686.91
2024-05-09T09:59:23.222Z,100680.34
2024-05-09T10:02:25.769Z,100678.16
2024-05-09T10:05:31.960Z,100682.97
2024-05-09T10:08:35.266Z,100668.19
2024-05-09T10:11:52.233Z,100682.88
2024-05-09T10:14:57.898Z,100688.56
2024-05-09T10:18:07.335Z,100665.44
2024-05-09T10:21:23.330Z,100637.28
2024-05-09T10:24:26.091Z,100663.34
2024-05-09T10:27:29.472Z,100669.22
2024-05-09T10:30:36.107Z,100657.19
2024-05-09T10:33:46.632Z,100658.53
2024-05-09T10:36:53.726Z,100672.88
2024-05-09T10:39:57.767Z,100662.38
2024-05-09T10:43:03.497Z,100652.88
2024-05-09T10:46:09.256Z,100648.44
2024-05-09T10:49:14.990Z,100654.81
2024-05-09T10:52:21.296Z,100656.94
2024-05-09T10:55:23.793Z,100643.69
2024-05-09T10:58:26.974Z,100662.63
2024-05-09T11:01:29.446Z,100631.88
2024-05-09T11:04:36.082Z,100648.47
2024-05-09T11:07:38.487Z,100633.38
2024-05-09T11:10:41.027Z,100631.66
2024-05-09T11:13:43.503Z,100627.47
2024-05-09T11:16:46.180Z,100643.44
2024-05-09T11:19:50.581Z,100645.84
2024-05-09T11:22:53.013Z,100634.84
2024-05-09T11:25:56.513Z,100633.59
2024-05-09T11:28:58.888Z,100633.19
2024-05-09T11:32:01.414Z,100628.75
2024-05-09T11:35:04.114Z,100611.88
2024-05-09T11:38:06.569Z,100605.28
2024-05-09T11:41:08.974Z,100616.69
2024-05-09T11:44:11.531Z,100606.06
2024-05-09T11:47:14.366Z,100597.88
2024-05-09T11:50:26.749Z,100608.88
2024-05-09T11:53:32.604Z,100608.66
2024-05-09T11:56:35.256Z,100606.75
2024-05-09T11:59:37.604Z,100586.03
2024-05-09T12:02:39.997Z,100583.06
2024-05-09T12:05:42.664Z,100591.50
2024-05-09T12:08:45.200Z,100596.16
2024-05-09T12:11:47.625Z,100574.50
2024-05-09T12:14:51.100Z,100580.69
2024-05-09T12:17:53.732Z,100574.41
2024-05-09T12:20:56.244Z,100588.31
2024-05-09T12:23:58.658Z,100573.84
2024-05-09T12:27:01.095Z,100566.00
2024-05-09T12:30:04.623Z,100568.50
2024-05-09T12:33:11.632Z,100569.84
2024-05-09T12:36:14.817Z,100552.63
2024-05-09T12:39:17.221Z,100557.97
2024-05-09T12:42:27.048Z,100560.72
2024-05-09T12:45:31.015Z,100574.63
2024-05-09T12:48:34.033Z,100560.44
2024-05-09T12:51:36.519Z,100547.59
2024-05-09T12:54:38.918Z,100561.47
2024-05-09T12:57:41.642Z,100556.00
2024-05-09T13:00:44.815Z,100554.59
2024-05-09T13:03:47.512Z,100545.78
2024-05-09T13:06:49.978Z,100553.97
2024-05-09T13:09:52.450Z,100537.88
2024-05-09T13:12:54.895Z,100534.84
2024-05-09T13:15:57.368Z,100540.63
2024-05-09T13:18:59.844Z,100524.06
2024-05-09T13:22:02.236Z,100538.88
2024-05-09T13:25:05.023Z,100541.59
2024-05-09T13:28:08.095Z,100533.75
2024-05-09T13:31:10.638Z,100545.63
2024-05-09T13:34:13.095Z,100546.19
2024-05-09T13:37:15.542Z,100530.28
2024-05-09T13:40:27.121Z,100523.16
2024-05-09T13:43:35.342Z,100520.72
2024-05-09T13:46:37.759Z,100513.84
2024-05-09T13:49:40.342Z,100527.66
2024-05-09T13:52:42.726Z,100531.25
2024-05-09T13:55:48.585Z,100521.59
2024-05-09T13:58:52.012Z,100512.22
2024-05-09T14:01:54.587Z,100523.75
2024-05-09T14:04:57.197Z,100515.91
2024-05-09T14:08:00.862Z,100520.56
2024-05-09T14:11:03.466Z,100520.38
2024-05-09T14:14:05.894Z,100524.34
2024-05-09T14:17:08.373Z,100514.31
2024-05-09T14:20:14.089Z,100501.09
2024-05-09T14:23:18.893Z,100500.09
2024-05-09T14:26:21.273Z,100517.19
2024-05-09T14:29:23.628Z,100512.06
2024-05-09T14:32:26.048Z,100504.69
2024-05-09T14:35:28.449Z,100503.06
2024-05-09T14:38:30.853Z,100496.78
2024-05-09T14:41:33.183Z,100497.28
2024-05-09T14:44:35.583Z,100481.28
2024-05-09T14:47:38.162Z,100485.06
2024-05-09T14:50:41.388Z,100493.19
2024-05-09T14:53:43.974Z,100494.34
2024-05-09T14:56:46.357Z,100485.16
2024-05-09T14:59:48.706Z,100495.41
2024-05-09T15:02:51.160Z,100486.34
2024-05-09T15:05:53.795Z,100478.78
2024-05-09T15:08:57.318Z,100488.69
2024-05-09T15:11:59.683Z,100478.25
2024-05-09T15:15:02.053Z,100484.75
2024-05-09T15:18:05.552Z,100477.84
2024-05-09T15:21:08.399Z,100479.44
2024-05-09T15:24:10.765Z,100466.44
2024-05-09T15:27:13.188Z,100467.94
2024-05-09T15:30:18.228Z,100466.06
2024-05-09T15:33:23.191Z,100485.53
2024-05-09T15:36:25.690Z,100462.00
2024-05-09T15:39:30.384Z,100452.22
2024-05-09T15:42:32.804Z,100473.16
2024-05-09T15:45:35.469Z,100478.00
2024-05-09T15:48:40.359Z,100470.88
2024-05-09T15:51:43.562Z,100479.78
2024-05-09T15:54:46.000Z,100460.94
2024-05-09T15:57:48.471Z,100476.75
2024-05-09T16:00:52.395Z,100461.91
2024-05-09T16:03:54.985Z,100477.88
2024-05-09T16:06:57.454Z,100461.31
2024-05-09T16:09:59.833Z,100473.84
2024-05-09T16:13:03.081Z,100466.75
2024-05-09T16:16:06.393Z,100466.41
2024-05-09T16:19:09.876Z,100455.88
2024-05-09T16:22:12.538Z,100474.72
2024-05-09T16:25:15.054Z,100475.19
2024-05-09T16:28:19.161Z,100468.59
2024-05-09T16:31:21.660Z,100465.44
2024-05-09T16:34:24.215Z,100448.22
2024-05-09T16:37:29.505Z,100461.88
2024-05-09T16:40:38.458Z,100474.47
2024-05-09T16:43:43.227Z,100460.00
2024-05-09T16:46:45.626Z,100474.66
2024-05-09T16:49:47.988Z,100459.84
2024-05-09T16:52:50.314Z,100466.16
2024-05-09T16:55:52.730Z,100458.97
2024-05-09T16:58:55.184Z,100474.75
2024-05-09T17:01:57.589Z,100475.41
2024-05-09T17:05:00.163Z,100456.75
2024-05-09T17:08:02.706Z,100468.34
2024-05-09T17:11:05.416Z,100466.00
2024-05-09T17:14:07.950Z,100456.06
2024-05-09T17:17:10.376Z,100479.41
2024-05-09T17:20:22.986Z,100478.16
2024-05-09T17:23:34.354Z,100484.28
2024-05-09T17:26:37.606Z,100470.44
2024-05-09T17:29:39.990Z,100484.41
2024-05-09T17:32:42.451Z,100469.47
2024-05-09T17:35:46.160Z,100482.75
2024-05-09T17:38:48.642Z,100470.50
2024-05-09T17:41:51.021Z,100488.53
2024-05-09T17:44:53.391Z,100485.75
2024-05-09T17:47:55.970Z,100481.69
2024-05-09T17:51:01.411Z,100499.00
2024-05-09T17:54:03.775Z,100494.34
2024-05-09T17:57:06.219Z,100493.63
2024-05-09T18:00:11.384Z,100509.41
2024-05-09T18:03:16.917Z,100511.38
2024-05-09T18:06:19.355Z,100497.59
2024-05-09T18:09:21.765Z,100509.13
2024-05-09T18:12:24.117Z,100501.59
2024-05-09T18:15:26.551Z,100499.13
2024-05-09T18:18:29.149Z,100506.81
2024-05-09T18:21:31.891Z,100510.38
2024-05-09T18:24:34.485Z,100530.16
2024-05-09T18:27:36.985Z,100517.75
2024-05-09T18:30:40.641Z,100520.66
2024-05-09T18:33:43.199Z,100530.56
2024-05-09T18:36:46.664Z,100534.09
2024-05-09T18:39:49.046Z,100547.00
2024-05-09T18:42:51.526Z,100546.84
2024-05-09T18:45:53.965Z,100542.56
2024-05-09T18:48:56.604Z,100539.22
2024-05-09T18:51:59.076Z,100550.72
2024-05-09T18:55:01.508Z,100550.91
2024-05-09T18:58:04.861Z,100556.72
2024-05-09T19:01:07.502Z,100566.00
2024-05-09T19:04:10.087Z,100576.38
2024-05-09T19:07:13.500Z,100558.94
2024-05-09T19:10:22.510Z,100558.25
2024-05-09T19:13:28.533Z,100573.78
2024-05-09T19:16:31.391Z,100559.59
2024-05-09T19:19:34.327Z,100576.50
2024-05-09T19:22:36.804Z,100572.53
2024-05-09T19:25:39.390Z,100582.31
2024-05-09T19:28:41.789Z,100588.97
2024-05-09T19:34:46.552Z,100582.13
2024-05-09T19:37:51.523Z,100569.47
2024-05-09T19:40:54.122Z,100592.56
2024-05-09T19:43:56.706Z,100606.16
2024-05-09T19:46:59.075Z,100608.91
2024-05-09T19:50:01.664Z,100616.03
2024-05-09T19:53:04.361Z,100616.16
2024-05-09T19:56:07.131Z,100622.13
2024-05-09T19:59:09.548Z,100605.69
2024-05-09T20:02:12.107Z,100607.66
2024-05-09T20:05:17.485Z,100626.34
2024-05-09T20:08:19.975Z,100628.84
2024-05-09T20:11:22.612Z,100612.41
2024-05-09T20:14:25.093Z,100631.94
2024-05-09T20:17:27.439Z,100621.53
2024-05-09T20:20:37.354Z,100625.09
2024-05-09T20:23:43.652Z,100640.28
2024-05-09T20:26:46.043Z,100629.53
2024-05-09T20:29:48.431Z,100647.66
2024-05-09T20:32:50.939Z,100650.94
2024-05-09T20:35:55.533Z,100641.81
2024-05-09T20:38:57.915Z,100652.63
2024-05-09T20:42:02.074Z,100649.47
2024-05-09T20:45:04.828Z,100650.59
2024-05-09T20:48:08.464Z,100666.28
2024-05-09T20:51:10.988Z,100663.91
2024-05-09T20:54:13.387Z,100652.03
2024-05-09T20:57:15.704Z,100650.16
2024-05-09T21:00:19.410Z,100657.25
2024-05-09T21:03:28.387Z,100678.09
2024-05-09T21:06:30.835Z,100676.22
2024-05-09T21:09:33.289Z,100666.50
2024-05-09T21:12:35.764Z,100683.28
2024-05-09T21:15:38.413Z,100674.38
2024-05-09T21:18:40.940Z,100677.88
2024-05-09T21:21:43.383Z,100675.72
2024-05-09T21:24:45.809Z,100687.13
2024-05-09T21:27:48.222Z,100676.84
2024-05-09T21:30:50.721Z,100687.38
2024-05-09T21:33:53.314Z,100691.69
2024-05-09T21:36:55.801Z,100669.28
2024-05-09T21:39:58.303Z,100683.34
2024-05-09T21:43:01.307Z,100696.03
2024-05-09T21:46:04.541Z,100690.91
2024-05-09T21:49:07.053Z,100693.91
2024-05-09T21:52:09.453Z,100693.38
2024-05-09T21:55:12.010Z,100681.19
2024-05-09T21:58:14.856Z,100697.72
2024-05-09T22:01:17.506Z,100705.88
2024-05-09T22:04:20.018Z,100682.34
2024-05-09T22:07:23.625Z,100688.03
2024-05-09T22:10:31.187Z,100708.63
2024-05-09T22:13:36.937Z,100688.03
2024-05-09T22:16:42.351Z,100705.09
2024-05-09T22:19:49.291Z,100689.72
2024-05-09T22:22:54.380Z,100694.53
2024-05-09T22:25:56.740Z,100702.13
2024-05-09T22:28:59.071Z,100702.94
2024-05-09T22:32:01.435Z,100699.97
2024-05-09T22:35:04.611Z,100723.78
2024-05-09T22:38:07.007Z,100714.56
2024-05-09T22:41:09.533Z,100694.53
2024-05-09T22:44:11.879Z,100707.25
2024-05-09T22:47:14.231Z,100695.31
2024-05-09T22:50:26.198Z,100693.41
2024-05-09T22:53:29.545Z,100696.41
2024-05-09T22:56:31.865Z,100700.44
2024-05-09T22:59:34.246Z,100698.81
2024-05-09T23:02:36.564Z,100706.09
2024-05-09T23:05:38.934Z,100706.38
2024-05-09T23:08:41.272Z,100712.09
2024-05-09T23:11:45.204Z,100715.59
2024-05-09T23:14:47.725Z,100715.81
2024-05-09T23:17:50.149Z,100713.41
2024-05-09T23:20:52.681Z,100723.41
2024-05-09T23:23:55.104Z,100726.38
2024-05-09T23:26:58.071Z,100721.75
2024-05-09T23:30:00.374Z,100698.41
2024-05-09T23:33:03.408Z,100723.38
2024-05-09T23:36:06.027Z,100706.56
2024-05-09T23:39:08.376Z,100722.06
2024-05-09T23:42:10.893Z,100706.56
2024-05-09T23:45:13.255Z,100716.34
2024-05-09T23:48:15.795Z,100721.22
2024-05-09T23:51:18.223Z,100722.06
2024-05-09T23:54:20.488Z,100702.25
2024-05-09T23:57:22.860Z,100711.75
